Station info - map view · info · telemetry · weather · raw · status · beacons · messages · bulletins · browse · moving · my account
Callsign, ship name or locator: Clear       
It is possible to search using wildcards (*?) after a prefix. Example: OH*
APRS station HB9FSM-9 - show graphs
Map loading...
Mic-E message: En route
Location: 47°25.34' N 9°21.20' E - locator JN47QK21JI - show map - static map
3.0 miles South bearing 202° from Wittenbach, Wahlkreis St. Gallen, Saint Gallen, Switzerland [?]
4.5 miles Southwest bearing 225° from Mörschwil, Wahlkreis Rorschach, Saint Gallen, Switzerland
37.7 miles East bearing 84° from Zürich, Bezirk Zürich, Zurich, Switzerland
96.3 miles Southwest bearing 228° from Augsburg, Regierungsbezirk Schwaben, Bavaria, Germany
Last position: 2017-01-07 10:44:57 EST (10d 14h13m ago)
2017-01-07 16:44:57 CET local time at Wittenbach, Switzerland [?]
Altitude: 2234 ft
Course: 155°
Speed: 2 MPH
Device: Yaesu: FTM-350 (rig)
Last path: HB9FSM-9>TW2US4 via WIDE1-1,WIDE2-1,qAR,DO9JM-13 (good)
Positions stored: 46501
Stations near current position of HB9FSM-9 - show more
callsign distance last heard - EST      callsign distance last heard - EST
HB9DR B0.7 miles 129°2017-01-18 00:46:41 HB9DR-B0.7 miles 129°2017-01-18 00:46:51
HB9DR A0.7 miles 129°2017-01-18 00:47:01 HB9DR-A0.7 miles 129°2017-01-18 00:47:11
EW23071.5 miles 87°2017-01-18 00:50:42 HB9EUD-91.7 miles 285°2017-01-17 17:05:18
HB9ASF-72.1 miles 67°2017-01-09 08:39:37 HB9JEZ2.1 miles 67°2017-01-14 09:18:58
HB9KNY-113.1 miles 37°2016-12-31 12:06:18 HB9KNY-43.1 miles 37°2016-12-31 12:59:45
HB9KNY-103.1 miles 38°2017-01-09 14:48:19 HB9KNY-23.1 miles 38°2017-01-18 00:37:16
HB9KNY3.1 miles 38°2016-12-31 13:04:40 M30130494.2 miles 127°2017-01-07 19:41:14
CV333-i5.1 miles 103°2017-01-17 13:45:44 HB9TIM-76.8 miles 54°2017-01-17 07:22:54
HB9EIY-97.0 miles 307°2017-01-18 00:34:20 HB9FUE7.0 miles 310°2017-01-03 04:41:58
HB9CKM-87.2 miles 264°2017-01-14 10:29:28 HB9CKM7.5 miles 267°2017-01-01 12:54:47
Stations which heard HB9FSM-9 directly on radio –
callsign pkts first heard - EST last heard longest (tx => rx) longest at - EST
DB0RZ 11 2017-01-02 13:01:41 2017-01-04 12:59:09 JN47QK > JN48SD 51.9 miles 10° 2017-01-03 10:18:57
DB0FD 7 2017-01-02 06:03:09 2017-01-02 07:52:33 JO42OX > JO42SF 53.4 miles 164° 2017-01-02 06:03:09
DB0KH 28 2017-01-02 08:53:09 2017-01-02 10:13:19 JO40VI > JO40RV 42.2 miles 339° 2017-01-02 10:13:19
DB0OI 1 2017-01-02 07:57:39 2017-01-02 07:57:39 JO52BC > JO52GG 20.3 miles 58° 2017-01-02 07:57:39
DB0ZD 5 2017-01-02 13:03:28 2017-01-02 14:58:58 JN58BC > JN57CM 39.2 miles 174° 2017-01-02 13:03:28
DJ5SO-1 4 2017-01-02 12:43:41 2017-01-02 12:56:55 JN58BE > JN48XK 18.3 miles 335° 2017-01-02 12:56:55
DB0BL 9 2017-01-02 11:33:53 2017-01-02 12:12:04 JN59CH > JN58EV 31.3 miles 165° 2017-01-02 11:33:53
DB0FIG 50 2017-01-02 14:35:11 2017-01-07 10:43:11 JN47TJ > JN47RQ 22.5 miles 335° 2017-01-02 14:35:11
DK5BD-1 26 2016-12-31 20:51:35 2017-01-01 12:54:08 JO43KC > JO42IX 11.8 miles 221° 2017-01-01 09:43:02
DB0SAE 8 2017-01-03 01:22:08 2017-01-05 11:43:38 JN47QK > JN47AQ 65.0 miles 286° 2017-01-03 15:21:13
DB0WZ 17 2017-01-02 10:26:50 2017-01-02 11:36:48 JN59CG > JN49WS 38.5 miles 338° 2017-01-02 11:36:48
DB0NES 1 2017-01-02 10:22:15 2017-01-02 10:22:15 JO40WF > JO50CG 15.4 miles 77° 2017-01-02 10:22:15
DB0ALT-10 1 2017-01-02 09:23:16 2017-01-02 09:23:16 JO41RA > JO41KD 26.2 miles 289° 2017-01-02 09:23:16
DB0TTM 2 2017-01-02 11:04:10 2017-01-02 11:26:26 JN59BS > JN49VJ 27.3 miles 207° 2017-01-02 11:04:10
DB0ABB 6 2017-01-02 08:28:02 2017-01-02 09:08:17 JO41RE > JO41UO 31.1 miles 21° 2017-01-02 09:08:17
OE9XVI 33 2017-01-02 13:32:05 2017-01-02 14:38:15 JN47XT > JN47TF 44.0 miles 204° 2017-01-02 13:32:05
DB0GSH 12 2017-01-02 07:49:31 2017-01-02 08:12:15 JO42XE > JO51EV 28.6 miles 136° 2017-01-02 07:49:31
HB9RF-10 9 2017-01-02 14:10:55 2017-01-05 07:18:49 JN47UK > JN47GA 63.6 miles 243° 2017-01-02 14:10:55
HB9ZF-3 2 2017-01-03 15:12:03 2017-01-04 12:51:27 JN47QK > JN47HL 34.4 miles 277° 2017-01-04 12:51:27
DB0TAN 4 2017-01-02 09:30:37 2017-01-02 10:12:29 JO40SW > JO40XL 34.8 miles 150° 2017-01-02 09:30:37
DB0BIB-6 1 2017-01-05 13:56:43 2017-01-05 13:56:43 JN47QK > JN48VC 50.3 miles 25° 2017-01-05 13:56:43
DB8AS-10 15 2017-01-02 08:52:28 2017-01-02 09:12:08 JO41RD > JO41RH 13.6 miles 3° 2017-01-02 09:12:08
HB9AW-10 1 2017-01-03 09:44:46 2017-01-03 09:44:46 JN47QK > JN47AB 67.5 miles 249° 2017-01-03 09:44:46
DL2MF-10 5 2017-01-02 07:29:44 2017-01-02 07:53:53 JO52AD > JO52DP 35.5 miles 19° 2017-01-02 07:53:53
DB0VS 1 2017-01-02 14:19:22 2017-01-02 14:19:22 JN47UI > JN48EC 77.2 miles 311° 2017-01-02 14:19:22
DB0SAA-10 9 2017-01-02 11:50:08 2017-01-02 12:11:08 JN59CB > JN58BT 19.3 miles 193° 2017-01-02 11:50:08
DK3RW-2 1 2017-01-02 09:51:06 2017-01-02 09:51:06 JO40UQ > JO40LQ 30.1 miles 266° 2017-01-02 09:51:06
DL4OAQ 1 2017-01-02 07:25:29 2017-01-02 07:25:29 JO42UO > JO42XE 30.5 miles 163° 2017-01-02 07:25:29
DB0FUL 2 2017-01-02 09:54:41 2017-01-02 10:09:47 JO40UJ > JO40UM 9.0 miles 359° 2017-01-02 10:09:47
DG7BBU-1 1 2016-12-31 20:58:14 2016-12-31 20:58:14 JO43KC > JO43JC 4.6 miles 260° 2016-12-31 20:58:14
HB9KOM-1 50 2017-01-02 13:33:41 2017-01-07 10:44:11 JN47XS > JN47OJ 44.1 miles 235° 2017-01-02 13:33:41
DB0NU 1 2017-01-02 10:44:03 2017-01-02 10:44:03 JN59AW > JO50IE 35.6 miles 63° 2017-01-02 10:44:03
DL4LAM-L 1 2017-01-02 07:47:14 2017-01-02 07:47:14 JO42XF > JO42UI 10.4 miles 308° 2017-01-02 07:47:14
DK0MAV 2 2017-01-02 07:48:05 2017-01-02 07:57:03 JO52BC > JO52CH 13.9 miles 20° 2017-01-02 07:57:03
DO1TNP-10 1 2017-01-02 07:54:44 2017-01-02 07:54:44 JO52AD > JO52CI 15.7 miles 22° 2017-01-02 07:54:44
DB0FTS-10 7 2017-01-02 09:29:59 2017-01-02 11:12:04 JN59CP > JO50IO 72.4 miles 20° 2017-01-02 11:12:04
DL6SH-10 1 2017-01-02 12:02:38 2017-01-02 12:02:38 JN58BV > JN48SW 27.3 miles 280° 2017-01-02 12:02:38
DH8OH-10 1 2017-01-02 08:14:51 2017-01-02 08:14:51 JO51BU > JO51AT 3.0 miles 222° 2017-01-02 08:14:51
DC4AT 12 2017-01-02 08:16:32 2017-01-02 08:28:53 JO41XP > JO51AR 8.7 miles 39° 2017-01-02 08:28:53
DL0PTB-10 3 2017-01-02 07:37:55 2017-01-02 07:46:23 JO42WH > JO52FH 24.9 miles 90° 2017-01-02 07:43:49
DM0SAT-10 2 2017-01-02 14:12:04 2017-01-02 15:02:41 JN47UK > JN47JS 47.3 miles 299° 2017-01-02 14:12:04
DM0SAT-3 2 2017-01-02 14:19:12 2017-01-02 15:03:36 JN47UJ > JN47JS 47.8 miles 305° 2017-01-02 14:19:12
DB0OAL 24 2017-01-02 12:06:15 2017-01-05 17:36:14 JN58CU > JN57JN 92.4 miles 163° 2017-01-02 12:06:15
DB0EBZ 2 2017-01-02 11:46:19 2017-01-02 11:47:06 JN59CC > JN59GB 13.9 miles 102° 2017-01-02 11:47:06
DG5AV-10 1 2017-01-02 08:08:55 2017-01-02 08:08:55 JO51BW > JO41VS 18.1 miles 232° 2017-01-02 08:08:55
DM0GAP-1 1 2017-01-02 12:38:54 2017-01-02 12:38:54 JN58BL > JN57NM 83.9 miles 144° 2017-01-02 12:38:54
DB0TVH 10 2017-01-02 07:24:37 2017-01-02 08:08:04 JO51BX > JO42UJ 33.6 miles 330° 2017-01-02 08:08:04
DB0RNG 13 2016-12-31 20:54:38 2017-01-02 06:40:40 JO43KC > JO43UA 33.5 miles 101° 2017-01-01 09:46:01
DB0CEL-10 11 2017-01-02 06:20:11 2017-01-02 07:33:59 JO42TT > JO52BP 23.2 miles 123° 2017-01-02 06:20:11
DL1GER-10 4 2017-01-02 12:41:17 2017-01-02 12:48:10 JN58BH > JN58CM 16.7 miles 25° 2017-01-02 12:48:10
DJ8KL-10 1 2017-01-02 07:12:21 2017-01-02 07:12:21 JO42UP > JO42UL 13.3 miles 173° 2017-01-02 07:12:21
DO1IBS 5 2017-01-02 06:14:13 2017-01-02 06:17:38 JO42RV > JO42SU 2.5 miles 136° 2017-01-02 06:14:13
DO1FE-10 6 2017-01-02 14:16:14 2017-01-03 13:44:21 JN47UI > JN47TW 37.7 miles 356° 2017-01-02 14:24:25
DC4FY-2 7 2017-01-02 09:21:36 2017-01-02 09:41:40 JO40ST > JO40XX 20.5 miles 55° 2017-01-02 09:41:40
DB0DLG-10 11 2017-01-02 12:06:42 2017-01-02 13:06:55 JN58BB > JN58FM 33.8 miles 22° 2017-01-02 13:06:55
DB0ZKN 2 2017-01-02 14:17:16 2017-01-06 11:46:06 JN47UJ > JN47OP 30.0 miles 308° 2017-01-02 14:17:16
DO9JM-13 144 2017-01-02 14:08:43 2017-01-07 10:44:41 JN47PJ > JN47TO 19.3 miles 48° 2017-01-03 15:12:34
DL3SFC-10 15 2017-01-02 12:18:37 2017-01-02 12:56:03 JN58CP > JN58CI 21.4 miles 180° 2017-01-02 12:18:37
DM0ET-10 1 2017-01-02 10:39:32 2017-01-02 10:39:32 JN59AX > JN59KT 37.5 miles 109° 2017-01-02 10:39:32
DB0OL-10 6 2016-12-31 20:55:31 2017-01-02 05:53:46 JO43LB > JO43CD 28.7 miles 279° 2017-01-02 05:53:46
DL2ZZM-10 1 2017-01-02 12:14:31 2017-01-02 12:14:31 JN58CR > JN58AR 6.2 miles 281° 2017-01-02 12:14:31
DB0SWR-10 20 2017-01-02 10:14:57 2017-01-02 11:35:37 JO40VH > JN49RQ 46.2 miles 198° 2017-01-02 10:14:57
DL1ZAX-10 9 2017-01-02 08:43:27 2017-01-02 09:09:22 JO41VJ > JO41SG 15.3 miles 228° 2017-01-02 08:43:27
DB0FEU-1 14 2017-01-02 11:29:51 2017-01-02 11:52:16 JN59CJ > JN59DD 16.1 miles 162° 2017-01-02 11:29:51
HB9RF-1 1 2017-01-05 07:18:37 2017-01-05 07:18:37 JN47QK > JN47FE 46.6 miles 249° 2017-01-05 07:18:37
DG7ABB-7 9 2017-01-02 08:27:42 2017-01-02 08:42:36 JO41XP > JO41VL 13.3 miles 204° 2017-01-02 08:27:42
DB0ADB-10 9 2017-01-02 10:04:58 2017-01-02 11:26:44 JO40UL > JN59KV 65.2 miles 128° 2017-01-02 10:04:58
HB9KNY-10 20 2017-01-05 05:53:53 2017-01-07 10:39:49 JN47QK > JN47QK 3.2 miles 35° 2017-01-05 05:55:39
DO5LY-10 8 2017-01-02 08:30:23 2017-01-02 08:41:45 JO41WK > JO41WN 9.3 miles 11° 2017-01-02 08:41:45
DB0HFT-10 75 2016-12-31 20:49:05 2017-01-02 06:06:38 JO42OW > JO43JB 20.5 miles 293° 2017-01-02 06:06:38
DB0LC-1 18 2017-01-02 13:21:34 2017-01-05 17:37:59 JN57AV > JN47WN 24.9 miles 205° 2017-01-02 13:21:34
DB0EB-10 6 2017-01-02 08:23:05 2017-01-02 08:33:54 JO41WN > JO41WU 18.6 miles 359° 2017-01-02 08:33:54

Only position packets which were originated by the station are shown here. The range statistics show some extra long hops, because some digipeaters do not correctly add themselves to the digipeater path. Please check the raw packets.
About this site
This page shows real-time information collected from the Automatic Position Reporting System Internet network (APRS-IS). APRS is used by amateur (ham) radio operators to transmit real-time position information, weather data, telemetry and messages over the radio. A vehicle equipped with a GPS receiver, a VHF transmitter or HF transceiver and a small computer device called a tracker transmits it's location, speed and course in a small data packet, which is then received by a nearby iGate receiving site which forwards the packet on the Internet. Systems connected to the Internet can send information on the APRS-IS without a radio transmitter, or collect and display information transmitted anywhere in the world.
FAQ · Blog · Discussion group · Linking to aprs.fi · AIS sites · Service status · Database statistics · Advertising on aprs.fi · Technical details · API · Change log · Planned changes · Credits and thanks · Terms Of Service · iPhone/iPad APRS